Tiempo atmosférico en la estación meteorológica de Anaga, Santa Cruz de Tenerife (19 m.)

Fecha
DESCASC
Temp. máxima en grados centígrados (hora)
DESCASC
Temp. mínima en grados centígrados (hora)
DESCASC
Temp. media en grados centígrados
DESCASC
Racha de viento máxima en m/sg (hora)
DESCASC
Velocidad máxima media en intervalos de 10 minutos(hora)
DESCASC
Precipitaciones diarias en mm
DESCASC
Precipitaciones de 00:00 a 06:00 en mm
DESCASC
Precipitaciones de 06:00 a 12:00 en mm
DESCASC
Precipitaciones de 12:00 a 18:00 en mm
DESCASC
Precipitaciones de 18:00 a 24:00 en mm
DESCASC
10-12-2017 22.4 (16:00) 15 (07:50) 18.7 6.94 (13:00) 3.33 (15:30) -- -- -- -- --
09-12-2017 21.6 (14:00) 16 (23:59) 18.8 6.67 (04:30) 2.78 (03:20) -- -- -- -- --
08-12-2017 21.6 (13:30) 17.9 (00:00) 19.8 7.78 (16:00) 3.33 (15:30) -- -- -- -- --
07-12-2017 21.2 (12:40) 17.9 (00:00) 19.6 8.06 (15:40) 3.61 (11:40) -- -- -- -- --
06-12-2017 21.3 (12:40) 18.1 (00:00) 19.7 8.33 (08:30) 4.17 (07:00) -- -- -- -- --
05-12-2017 22.7 (13:00) 17.4 (00:00) 20.1 9.17 (14:50) 4.17 (14:40) -- -- -- -- --
04-12-2017 22.4 (14:20) 17.6 (00:00) 20 7.5 (04:20) 3.06 (15:20) -- -- -- -- --
03-12-2017 22 (15:10) 18.4 (00:00) 20.2 6.67 (10:50) 3.33 (17:00) -- -- -- -- --
02-12-2017 19.9 (17:10) 17.5 (00:00) 18.7 6.39 (10:30) 2.78 (10:50) -- -- -- -- --
01-12-2017 24.6 (14:00) 18.3 (00:00) 21.4 4.72 (10:20) 2.78 (12:30) -- -- -- -- --
30-11-2017 24.4 (11:00) 18.4 (00:00) 21.4 6.39 (10:10) 3.33 (11:50) 0 0 0 0 0
29-11-2017 24.5 (11:20) 18.1 (00:00) 21.3 3.89 (13:10) 2.22 (13:00) 0 0 0 0 0
28-11-2017 25.1 (15:20) 17.9 (00:00) 21.5 5.28 (12:00) 2.5 (12:00) 0 0 0 0 0
27-11-2017 26.8 (14:00) 19 (00:00) 22.9 7.78 (11:30) 2.78 (11:20) 0 0 0 0 0
26-11-2017 25.7 (11:20) 20.2 (00:00) 23 8.33 (09:00) 3.61 (09:00) 0 0 0 0 0
25-11-2017 25.5 (09:20) 20.7 (00:00) 23.1 11.67 (18:50) 4.72 (18:50) 0 0 0 0 0
24-11-2017 24.6 (15:30) 18.5 (00:00) 21.6 7.78 (11:50) 4.72 (11:30) 0 0 0 0 0
23-11-2017 24.2 (15:40) 16.3 (00:00) 20.3 4.72 (16:50) 2.5 (14:50) 0 0 0 0 0
22-11-2017 25.1 (11:20) 18.4 (00:00) 21.8 6.11 (12:30) 3.61 (12:30) 0 0 0 0 0
21-11-2017 24.9 (13:30) 17.6 (00:00) 21.3 11.11 (10:30) 5 (10:30) 0 0 0 0 0
20-11-2017 24.8 (15:40) 17.8 (00:00) 21.3 6.11 (14:30) 3.06 (14:30) 0 0 0 0 0
19-11-2017 23.2 (11:50) 20.4 (00:00) 21.8 8.61 (15:10) 4.44 (15:10) 0 0 0 0 0
18-11-2017 24 (14:00) 18.9 (00:00) 21.4 6.39 (15:40) 3.33 (15:40) 0 0 0 0 0
17-11-2017 23.6 (12:40) 16.7 (00:00) 20.2 6.67 (16:20) 3.33 (14:20) 0 0 0 0 0
16-11-2017 23.3 (14:10) 16.2 (00:00) 19.8 6.94 (16:10) 3.33 (16:10) 0 0 0 0 0
15-11-2017 23.7 (13:30) 17.2 (00:00) 20.5 8.61 (14:00) 3.89 (15:10) 0 0 0 0 0

Gráficas

Temp. máximas Temp. mínimas Temp. medias Precipitaciones Rachas de viento máximas Velocidades máximas media en intervalos de 10 minutos

Datos horarios

Fecha y hora oficial Temperatura (ºC) Velocidad del viento (km/h) Dirección del viento Racha (km/h) Dirección de racha Precipitación (mm) Presión (hPa) Tendencia (hPa) Humedad (%)
2017-12-14 23:00:00 18.6 4 Norte 28 Norte -- -- -- 60
2017-12-14 22:00:00 18.5 9 Norte 21 Nordeste -- -- -- 60
2017-12-14 21:00:00 17.8 5 Norte 14 Oeste -- -- -- 64
2017-12-14 20:00:00 17.7 3 Noroeste 13 Norte -- -- -- 62
2017-12-14 19:00:00 18.2 6 Norte 22 Noroeste -- -- -- 62
2017-12-14 18:00:00 18.5 7 Norte 22 Norte -- -- -- 61
2017-12-14 17:00:00 19.1 6 Norte 25 Nordeste -- -- -- 64
2017-12-14 16:00:00 20.6 6 Norte 32 Nordeste -- -- -- 60
2017-12-14 15:00:00 20.7 11 Norte 28 Nordeste -- -- -- 58
2017-12-14 14:00:00 21.2 8 Norte 27 Norte -- -- -- 57
2017-12-14 13:00:00 20.3 9 Norte 24 Noroeste -- -- -- 60
2017-12-14 12:00:00 19.7 8 Norte 22 Norte -- -- -- 60
2017-12-14 11:00:00 19.8 8 Norte 24 Norte -- -- -- 61
2017-12-14 10:00:00 18.6 5 Norte 12 Noroeste -- -- -- 66
2017-12-14 09:00:00 16.3 0 Calma 4 Noroeste -- -- -- 76
2017-12-14 08:00:00 15.5 0 Calma 5 Norte -- -- -- 77
2017-12-14 07:00:00 15 0 Calma 6 Nordeste -- -- -- 76
2017-12-14 06:00:00 15.6 3 Norte 6 Norte -- -- -- 74
2017-12-14 05:00:00 15.8 3 Norte 8 Nordeste -- -- -- 72
2017-12-14 04:00:00 15.6 0 Calma 6 Noroeste -- -- -- 72
2017-12-14 03:00:00 15.6 0 Calma 8 Norte -- -- -- 71
2017-12-14 02:00:00 15.9 2 Oeste 6 Norte -- -- -- 70
2017-12-14 01:00:00 17.1 0 Calma 15 Sur -- -- -- 66
2017-12-14 00:00:00 17.5 2 Norte 15 Norte -- -- -- 62
2017-12-13 23:00:00 18.2 6 Sur 26 Noroeste -- -- -- 59
2017-12-13 22:00:00 18 7 Norte 18 Norte -- -- -- 60
2017-12-13 21:00:00 17.8 5 Norte 19 Noroeste -- -- -- 61
2017-12-13 20:00:00 17.9 2 Norte 17 Noroeste -- -- -- 61
2017-12-13 19:00:00 18.2 8 Norte 22 Norte -- -- -- 59
2017-12-13 18:00:00 18.4 8 Norte 22 Norte -- -- -- 60
2017-12-13 17:00:00 18 6 Norte 28 Noroeste -- -- -- 69
2017-12-13 16:00:00 19 9 Norte 34 Noroeste -- -- -- 60
2017-12-13 15:00:00 19.9 11 Norte 31 Noroeste -- -- -- 53
2017-12-13 14:00:00 19.5 9 Norte 23 Norte -- -- -- 55
2017-12-13 13:00:00 19 6 Norte 32 Noroeste -- -- -- 59
2017-12-13 12:00:00 19.4 10 Norte 25 Noroeste -- -- -- 52
2017-12-13 11:00:00 19.6 11 Norte 33 Noroeste -- -- -- 53
2017-12-13 10:00:00 19.3 6 Norte 25 Norte -- -- -- 61
2017-12-13 09:00:00 18.3 10 Norte 30 Noroeste -- -- -- 63
2017-12-13 08:00:00 18 13 Norte 32 Noroeste -- -- -- 66
2017-12-13 07:00:00 18.1 13 Norte 31 Norte -- -- -- 61
2017-12-13 06:00:00 17.9 7 Norte 27 Norte -- -- -- 63
2017-12-13 05:00:00 17 10 Norte 36 Norte -- -- -- 65
2017-12-13 04:00:00 17.4 8 Norte 28 Norte -- -- -- 64
2017-12-13 03:00:00 17.1 9 Norte 38 Norte -- -- -- 68
2017-12-13 02:00:00 16.7 13 Norte 30 Norte -- -- -- 74
2017-12-13 01:00:00 17.1 8 Norte 29 Noroeste -- -- -- 65
2017-12-13 00:00:00 17.2 11 Norte 30 Norte -- -- -- 68
2017-12-12 23:00:00 17.1 8 Norte 37 Norte -- -- -- 72
2017-12-12 22:00:00 17.2 7 Norte 29 Noroeste -- -- -- 67
2017-12-12 21:00:00 16.7 7 Norte 41 Norte -- -- -- 69
2017-12-12 20:00:00 17.5 7 Nordeste 25 Norte -- -- -- 67
2017-12-12 19:00:00 18.4 10 Norte 34 Nordeste -- -- -- 57
2017-12-12 18:00:00 18.6 12 Norte 39 Norte -- -- -- 58
2017-12-12 17:00:00 18.4 9 Norte 30 Norte -- -- -- 68
2017-12-12 16:00:00 19.3 10 Norte 35 Norte -- -- -- 62
2017-12-12 15:00:00 17.5 12 Norte 30 Norte -- -- -- 72
2017-12-12 14:00:00 18.4 10 Norte 30 Norte -- -- -- 70
2017-12-12 13:00:00 17.6 12 Norte 41 Nordeste -- -- -- 73
2017-12-12 12:00:00 19.9 11 Norte 37 Norte -- -- -- 57
2017-12-12 11:00:00 19.8 9 Norte 31 Norte -- -- -- 60
2017-12-12 10:00:00 19.5 12 Norte 40 Noroeste -- -- -- 56
2017-12-12 09:00:00 18.7 10 Norte 30 Norte -- -- -- 54
2017-12-12 08:00:00 18 10 Norte 28 Norte -- -- -- 60
2017-12-12 07:00:00 17.9 7 Norte 30 Noroeste -- -- -- 55
2017-12-12 06:00:00 17.9 9 Norte 28 Noroeste -- -- -- 63
2017-12-12 05:00:00 18 11 Norte 24 Norte -- -- -- 63
2017-12-12 04:00:00 17.7 5 Norte 32 Norte -- -- -- 62
2017-12-12 03:00:00 17.9 9 Norte 32 Noroeste -- -- -- 66
2017-12-12 02:00:00 17.9 3 Nordeste 27 Norte -- -- -- 65
2017-12-12 01:00:00 18.1 11 Norte 37 Norte -- -- -- 67
2017-12-12 00:00:00 17.9 6 Norte 34 Norte -- -- -- 74
2017-12-11 23:00:00 17.9 10 Norte 42 Noroeste -- -- -- 73
2017-12-11 22:00:00 17.6 11 Norte 39 Nordeste -- -- -- 80
2017-12-11 21:00:00 17.3 9 Norte 36 Norte -- -- -- 87
2017-12-11 20:00:00 17.5 15 Norte 43 Norte -- -- -- 87
2017-12-11 19:00:00 19 23 Norte 49 Norte -- -- -- 79
2017-12-11 18:00:00 21.2 8 Noroeste 34 Norte -- -- -- 63
2017-12-11 17:00:00 22.4 6 Norte 31 Norte -- -- -- 55
2017-12-11 16:00:00 23.6 7 Noroeste 27 Norte -- -- -- 50
2017-12-11 15:00:00 24.3 10 Noroeste 29 Sudoeste -- -- -- 48
2017-12-11 14:00:00 24 10 Norte 33 Norte -- -- -- 49
2017-12-11 13:00:00 23.3 13 Norte 36 Norte -- -- -- 52
2017-12-11 12:00:00 21.9 12 Norte 33 Norte -- -- -- 60
2017-12-11 11:00:00 22 8 Norte 23 Norte -- -- -- 56
2017-12-11 10:00:00 21 7 Norte 17 Noroeste -- -- -- 62
2017-12-11 09:00:00 18.3 5 Sudoeste 10 Sur -- -- -- 71
2017-12-11 08:00:00 16.7 4 Norte 10 Norte -- -- -- 73
2017-12-11 07:00:00 18.4 4 Norte 15 Sudoeste -- -- -- 69
2017-12-11 06:00:00 18.7 4 Oeste 16 Sudoeste -- -- -- 70
2017-12-11 05:00:00 17.5 3 Noroeste 8 Oeste -- -- -- 74
2017-12-11 04:00:00 16.2 0 Calma 4 Norte -- -- -- 80
2017-12-11 03:00:00 16.4 0 Calma 8 Norte -- -- -- 78
2017-12-11 02:00:00 16.5 3 Norte 6 Norte -- -- -- 78
2017-12-11 01:00:00 17.5 0 Calma 9 Noroeste -- -- -- 76
2017-12-11 00:00:00 18.1 3 Norte 10 Norte -- -- -- 73
2017-12-10 23:00:00 19.1 2 Sudoeste 12 Nordeste -- -- -- 73
2017-12-10 22:00:00 19.2 5 Norte 15 Noroeste -- -- -- 73
2017-12-10 21:00:00 19 2 Nordeste 8 Norte -- -- -- 73
2017-12-10 20:00:00 19.7 3 Norte 12 Noroeste -- -- -- 70
2017-12-10 19:00:00 20 6 Norte 16 Norte -- -- -- 70
2017-12-10 18:00:00 20.2 6 Norte 17 Norte -- -- -- 68
2017-12-10 17:00:00 21 7 Norte 18 Norte -- -- -- 61
2017-12-10 16:00:00 22.4 5 Noroeste 25 Sudeste -- -- -- 59
2017-12-10 15:00:00 22.1 9 Sudeste 24 Sudeste -- -- -- 64
2017-12-10 14:00:00 22.1 10 Sur 23 Sudeste -- -- -- 63
2017-12-10 13:00:00 22 9 Sur 25 Sudeste -- -- -- 64
2017-12-10 12:00:00 21.8 9 Sur 18 Sudeste -- -- -- 63
2017-12-10 11:00:00 21.5 6 Sur 21 Sudeste -- -- -- 63
2017-12-10 10:00:00 20.3 5 Sur 15 Sur -- -- -- 65
2017-12-10 09:00:00 16.9 5 Norte 9 Norte -- -- -- 77
2017-12-10 08:00:00 15.1 4 Norte 9 Norte -- -- -- 83
2017-12-10 07:00:00 15.4 5 Norte 9 Norte -- -- -- 81
2017-12-10 06:00:00 15.4 5 Norte 9 Noroeste -- -- -- 79
2017-12-10 05:00:00 16 4 Norte 9 Norte -- -- -- 77
2017-12-10 04:00:00 16.2 5 Norte 12 Norte -- -- -- 77
2017-12-10 03:00:00 15.9 5 Norte 12 Norte -- -- -- 77
2017-12-10 02:00:00 15.4 0 Calma 5 Nordeste -- -- -- 78
2017-12-10 01:00:00 16.2 0 Calma 7 Norte -- -- -- 75
2017-12-10 00:00:00 16 2 Norte 8 Norte -- -- -- 74
2017-12-09 23:00:00 16.5 3 Norte 9 Noroeste -- -- -- 72
2017-12-09 22:00:00 16.8 0 Calma 14 Noroeste -- -- -- 70
2017-12-09 21:00:00 18.1 5 Norte 13 Norte -- -- -- 65
2017-12-09 20:00:00 17.8 3 Norte 9 Nordeste -- -- -- 64
2017-12-09 19:00:00 18.1 0 Calma 10 Sur -- -- -- 63
2017-12-09 18:00:00 19.1 7 Sur 21 Sur -- -- -- 61
2017-12-09 17:00:00 19.5 7 Sudeste 21 Sudeste -- -- -- 62
2017-12-09 16:00:00 20.6 8 Sudeste 17 Sudeste -- -- -- 58
2017-12-09 15:00:00 20.5 6 Sur 19 Sur -- -- -- 60
2017-12-09 14:00:00 21.6 7 Sur 18 Sudeste -- -- -- 57
2017-12-09 13:00:00 20.3 5 Sudeste 17 Este -- -- -- 59
2017-12-09 12:00:00 21 6 Sur 17 Sur -- -- -- 56
2017-12-09 11:00:00 20.1 4 Sur 17 Sur -- -- -- 59
2017-12-09 10:00:00 20.2 7 Sur 19 Sudeste -- -- -- 61
2017-12-09 09:00:00 19.6 8 Sur 22 Sudeste -- -- -- 63
2017-12-09 08:00:00 18.6 8 Sur 18 Sur -- -- -- 67
2017-12-09 07:00:00 18.5 6 Sur 21 Sudeste -- -- -- 67
2017-12-09 06:00:00 18.6 6 Sur 24 Sur -- -- -- 65
2017-12-09 05:00:00 18.6 5 Sur 24 Sur -- -- -- 64
2017-12-09 04:00:00 18.6 4 Sur 22 Sur -- -- -- 62
2017-12-09 03:00:00 18.5 6 Sudoeste 21 Sur -- -- -- 62
2017-12-09 02:00:00 18.7 5 Sudoeste 21 Sudeste -- -- -- 60
2017-12-09 01:00:00 18.6 6 Sur 21 Sur -- -- -- 57
2017-12-09 00:00:00 18.6 6 Sur 20 Sur -- -- -- 54
2017-12-08 23:00:00 18.7 8 Sur 26 Sur -- -- -- 50
2017-12-08 22:00:00 18.7 6 Sur 21 Sudeste -- -- -- 50
2017-12-08 21:00:00 18.8 6 Sur 27 Sur -- -- -- 48
2017-12-08 20:00:00 18.8 8 Sur 24 Sudeste -- -- -- 48
2017-12-08 19:00:00 18.7 6 Sur 24 Sur -- -- -- 52
2017-12-08 18:00:00 18.9 6 Sur 21 Sur -- -- -- 49
2017-12-08 17:00:00 19.1 8 Sur 22 Sur -- -- -- 53
2017-12-08 16:00:00 20.2 12 Sudeste 28 Sur -- -- -- 51
2017-12-08 15:00:00 20.9 10 Sudeste 22 Sudeste -- -- -- 50
2017-12-08 14:00:00 21.4 9 Sur 27 Sur -- -- -- 53
2017-12-08 13:00:00 21.5 10 Sur 23 Sudeste -- -- -- 56
2017-12-08 12:00:00 21.3 10 Sur 23 Sur -- -- -- 55
2017-12-08 11:00:00 20.8 9 Sur 21 Sur -- -- -- 55
2017-12-08 10:00:00 19.6 10 Sur 25 Sudeste -- -- -- 61
2017-12-08 09:00:00 18.7 10 Sur 27 Este -- -- -- 62
2017-12-08 08:00:00 18.3 7 Sur 23 Sur -- -- -- 63
2017-12-08 07:00:00 18.1 8 Sur 22 Sudeste -- -- -- 63
2017-12-08 06:00:00 18.2 8 Sur 18 Sur -- -- -- 62
2017-12-08 05:00:00 18.3 8 Sur 22 Sudeste -- -- -- 56
2017-12-08 04:00:00 18.3 9 Sur 20 Sur -- -- -- 55
2017-12-08 03:00:00 18.5 10 Sur 27 Sudeste -- -- -- 52
2017-12-08 02:00:00 18.3 9 Sur 24 Sudeste -- -- -- 52
2017-12-08 01:00:00 18.1 8 Sur 18 Sur -- -- -- 50
2017-12-08 00:00:00 17.9 7 Sur 19 Sur -- -- -- 54
2017-12-07 23:00:00 18.1 7 Sur 22 Sudeste -- -- -- 51
2017-12-07 22:00:00 18.3 7 Sur 26 Sur -- -- -- 49
2017-12-07 21:00:00 18.4 11 Sur 27 Sur -- -- -- 46
2017-12-07 20:00:00 18.1 6 Sur 24 Sudeste -- -- -- 52
2017-12-07 19:00:00 18 6 Sur 21 Sur -- -- -- 52
2017-12-07 18:00:00 18.1 8 Sur 29 Sudeste -- -- -- 49
2017-12-07 17:00:00 18.4 9 Sudeste 22 Sur -- -- -- 50
2017-12-07 16:00:00 19.8 8 Sur 29 Sudeste -- -- -- 49
2017-12-07 15:00:00 20.7 9 Sudeste 24 Sudeste -- -- -- 46
2017-12-07 14:00:00 21 9 Sur 24 Sudeste -- -- -- 50
2017-12-07 13:00:00 20.9 11 Sur 25 Sudeste -- -- -- 53
2017-12-07 12:00:00 20.9 11 Sur 24 Sudoeste -- -- -- 55
2017-12-07 11:00:00 20.9 9 Sur 22 Sur -- -- -- 54
2017-12-07 10:00:00 20.1 9 Sur 24 Sur -- -- -- 58
2017-12-07 09:00:00 19.1 10 Sur 20 Sur -- -- -- 60
2017-12-07 08:00:00 18.1 9 Sur 22 Sudoeste -- -- -- 60
2017-12-07 07:00:00 18.1 8 Sur 20 Sudeste -- -- -- 61
2017-12-07 06:00:00 18.1 8 Sur 21 Sudeste -- -- -- 59
2017-12-07 05:00:00 18.3 9 Sur 22 Este -- -- -- 58
2017-12-07 04:00:00 18.3 9 Sur 21 Sudeste -- -- -- 57
2017-12-07 03:00:00 18.4 9 Sur 21 Sur -- -- -- 58
2017-12-07 02:00:00 18.4 10 Sur 22 Sur -- -- -- 58
2017-12-07 01:00:00 18.4 8 Sur 27 Sudeste -- -- -- 58
2017-12-07 00:00:00 18.6 9 Sur 22 Sudeste -- -- -- 61
2017-12-06 23:00:00 18.6 10 Sur 20 Sur -- -- -- 59
2017-12-06 22:00:00 18.4 8 Sur 19 Sur -- -- -- 59
2017-12-06 21:00:00 18.2 9 Sur 17 Sudeste -- -- -- 55
2017-12-06 20:00:00 18.2 7 Sur 19 Sudeste -- -- -- 53
2017-12-06 19:00:00 18.2 7 Sur 19 Sudeste -- -- -- 51
2017-12-06 18:00:00 18.5 8 Sur 22 Sudeste -- -- -- 49
2017-12-06 17:00:00 18.9 7 Sur 18 Sudoeste -- -- -- 46
2017-12-06 16:00:00 20.4 9 Sur 22 Este -- -- -- 39
2017-12-06 15:00:00 20.9 10 Sur 26 Sudeste -- -- -- 44
2017-12-06 14:00:00 21.1 9 Sur 24 Sur -- -- -- 47
2017-12-06 13:00:00 21.2 10 Sur 23 Sur -- -- -- 48
2017-12-06 12:00:00 21.1 9 Sur 24 Sur -- -- -- 46
2017-12-06 11:00:00 20.5 13 Sur 26 Sur -- -- -- 48
2017-12-06 10:00:00 20 12 Sur 26 Sur -- -- -- 52
2017-12-06 09:00:00 19.4 10 Sur 30 Sur -- -- -- 55
2017-12-06 08:00:00 19 13 Sur 24 Sudeste -- -- -- 53
2017-12-06 07:00:00 19.2 15 Sur 27 Sur -- -- -- 47
2017-12-06 06:00:00 19.4 15 Sur 27 Sur -- -- -- 49
2017-12-06 05:00:00 19.5 10 Sur 27 Sur -- -- -- 52
2017-12-06 04:00:00 19.4 10 Sur 25 Sudeste -- -- -- 53
2017-12-06 03:00:00 19.4 8 Sur 22 Sudeste -- -- -- 56
2017-12-06 02:00:00 19.3 7 Sur 16 Sudeste -- -- -- 57
2017-12-06 01:00:00 19.3 7 Sur 15 Sur -- -- -- 54
2017-12-06 00:00:00 19.3 6 Sur 16 Sur -- -- -- 49
2017-12-05 23:00:00 19.2 6 Sur 13 Sudeste -- -- -- 51
2017-12-05 22:00:00 19.4 7 Sur 14 Sudeste -- -- -- 47
2017-12-05 21:00:00 19.2 6 Sur 20 Sudeste -- -- -- 51
2017-12-05 20:00:00 19.3 7 Sur 21 Sur -- -- -- 51
2017-12-05 19:00:00 19.3 8 Sur 25 Sudeste -- -- -- 54
2017-12-05 18:00:00 19.6 8 Sudeste 21 Sudeste -- -- -- 54
2017-12-05 17:00:00 20.2 9 Sudeste 20 Sudeste -- -- -- 53
2017-12-05 16:00:00 21.2 9 Sudeste 25 Sudeste -- -- -- 51
2017-12-05 15:00:00 21.8 13 Sudeste 33 Sur -- -- -- 56
2017-12-05 14:00:00 22.3 11 Sudeste 25 Sudeste -- -- -- 56
2017-12-05 13:00:00 22.7 9 Sudeste 26 Sudeste -- -- -- 53
2017-12-05 12:00:00 22.5 13 Sudeste 26 Sudeste -- -- -- 54
2017-12-05 11:00:00 22.2 9 Sudeste 21 Sur -- -- -- 58
2017-12-05 10:00:00 21.9 8 Sur 24 Sudeste -- -- -- 58
2017-12-05 09:00:00 21 9 Sur 23 Sur -- -- -- 60
2017-12-05 08:00:00 20.3 8 Sur 19 Sur -- -- -- 65
2017-12-05 07:00:00 18.9 3 Norte 13 Sudeste -- -- -- 65
2017-12-05 06:00:00 18.6 3 Sudoeste 10 Sur -- -- -- 68
2017-12-05 05:00:00 17.5 2 Nordeste 6 Norte -- -- -- 75
2017-12-05 04:00:00 19 3 Norte 15 Sur -- -- -- 69
2017-12-05 03:00:00 20 6 Sur 24 Sur -- -- -- 63
2017-12-05 02:00:00 19.8 3 Sur 15 Sur -- -- -- 66
2017-12-05 01:00:00 17.9 3 Norte 8 Norte -- -- -- 82
2017-12-05 00:00:00 18.5 3 Noroeste 9 Norte -- -- -- 82
2017-12-04 23:00:00 18 3 Norte 10 Norte -- -- -- 80
2017-12-04 22:00:00 18.8 3 Norte 8 Sudeste -- -- -- 76
2017-12-04 21:00:00 19.9 3 Sur 11 Sur -- -- -- 74
2017-12-04 20:00:00 20.1 5 Sur 15 Sudeste -- -- -- 73
2017-12-04 19:00:00 20.2 5 Sur 17 Sur -- -- -- 72
2017-12-04 18:00:00 20.3 6 Sur 19 Sudeste -- -- -- 71
2017-12-04 17:00:00 20.6 8 Sudeste 21 Sudeste -- -- -- 70
2017-12-04 16:00:00 21.5 8 Sudeste 21 Sudeste -- -- -- 66
2017-12-04 15:00:00 22 7 Sudeste 21 Este -- -- -- 64
2017-12-04 14:00:00 21.9 7 Sudeste 23 Sudeste -- -- -- 61
2017-12-04 13:00:00 22.2 6 Sudeste 21 Sur -- -- -- 60
2017-12-04 12:00:00 21.5 8 Sudeste 22 Sudeste -- -- -- 61
2017-12-04 11:00:00 21 5 Sudeste 21 Sur -- -- -- 63
2017-12-04 10:00:00 19.9 8 Sudeste 19 Sudeste -- -- -- 64
2017-12-04 09:00:00 19.1 6 Sur 15 Sur -- -- -- 66
2017-12-04 08:00:00 18.8 4 Sudoeste 22 Sudoeste -- -- -- 65
2017-12-04 07:00:00 18.8 7 Sur 21 Sur -- -- -- 65
2017-12-04 06:00:00 17.9 3 Sur 15 Sur -- -- -- 68
2017-12-04 05:00:00 18.6 3 Noroeste 27 Sur -- -- -- 63
2017-12-04 04:00:00 18.5 4 Norte 17 Norte -- -- -- 67
2017-12-04 03:00:00 18.5 2 Norte 18 Norte -- -- -- 67
2017-12-04 02:00:00 19.1 3 Norte 8 Norte -- -- -- 66
2017-12-04 01:00:00 19.3 3 Norte 17 Sur -- -- -- 67
2017-12-04 00:00:00 19.1 0 Calma 4 Noroeste -- -- -- 70
2017-12-03 23:00:00 18.8 0 Calma 10 Norte -- -- -- 68
2017-12-03 22:00:00 19.2 3 Norte 13 Norte -- -- -- 63
2017-12-03 21:00:00 19.7 5 Norte 13 Noroeste -- -- -- 62
2017-12-03 20:00:00 19.8 5 Norte 20 Sur -- -- -- 65
2017-12-03 19:00:00 19.9 4 Sur 23 Sur -- -- -- 67
2017-12-03 18:00:00 20.1 4 Norte 13 Sur -- -- -- 68
2017-12-03 17:00:00 20.2 12 Sur 22 Sur -- -- -- 67
2017-12-03 16:00:00 20.9 6 Sudeste 23 Sudeste -- -- -- 66
2017-12-03 15:00:00 21.7 8 Sudeste 23 Sudeste -- -- -- 63
2017-12-03 14:00:00 21 6 Sudeste 19 Sudeste 0 -- -- 62
2017-12-03 13:00:00 20.7 8 Sur 23 Sur 0 -- -- 63
2017-12-03 12:00:00 20.3 9 Sur 22 Sur 0 -- -- 66
2017-12-03 11:00:00 20.3 6 Sur 24 Sur 0 -- -- 67
2017-12-03 10:00:00 20 4 Oeste 13 Sudeste 0 -- -- 67
2017-12-03 09:00:00 19.1 4 Sur 13 Sur 0 -- -- 69
2017-12-03 08:00:00 18.4 0 Calma 8 Noroeste 0 -- -- 77
2017-12-03 07:00:00 18.6 0 Calma 4 Oeste 0 -- -- 81
2017-12-03 06:00:00 19 0 Calma 10 Sur 0 -- -- 78
2017-12-03 05:00:00 19.4 3 Sudoeste 9 Sur 0 -- -- 73
2017-12-03 04:00:00 19.2 0 Calma 12 Sur 0 -- -- 75
2017-12-03 03:00:00 19.4 2 Noroeste 10 Sur 0 -- -- 74
2017-12-03 02:00:00 19.5 6 Sudoeste 17 Sur 0 -- -- 73
2017-12-03 01:00:00 19.6 4 Sudoeste 22 Sur 0 -- -- 72
2017-12-03 00:00:00 19.6 7 Sur 17 Sur 0 -- -- 74
2017-12-02 23:00:00 19.7 6 Sudoeste 18 Sur 0 -- -- 75
2017-12-02 22:00:00 19.8 5 Sudoeste 16 Sur 0 -- -- 76
2017-12-02 21:00:00 19.8 4 Sur 14 Sur 0 -- -- 77
2017-12-02 20:00:00 19.8 5 Sur 13 Sur 0 -- -- 78
2017-12-02 19:00:00 19.8 3 Sudoeste 9 Sur 0 -- -- 81
2017-12-02 18:00:00 19.8 5 Sur 14 Sudeste 0 -- -- 82
2017-12-02 17:00:00 19.8 4 Sur 11 Sur 0 -- -- 84
2017-12-02 16:00:00 19.7 3 Sur 10 Sur 0 -- -- 87
2017-12-02 15:00:00 19.4 2 Sudoeste 12 Sur 0 -- -- 87
2017-12-02 14:00:00 19 4 Sur 16 Sur 0 -- -- 92
2017-12-02 13:00:00 18.9 6 Sur 17 Sudeste 0 -- -- 92
2017-12-02 12:00:00 19 8 Sur 20 Sudeste 0 -- -- 92
2017-12-02 11:00:00 19.2 10 Sur 23 Sur 0 -- -- 92
2017-12-02 10:00:00 19.5 2 Norte 8 Norte 0 -- -- 90
2017-12-02 09:00:00 19.3 3 Norte 7 Norte 0 -- -- 91
2017-12-02 08:00:00 18.8 4 Norte 7 Norte 0 -- -- 87
2017-12-02 07:00:00 18.2 4 Norte 8 Norte 0 -- -- 88
2017-12-02 06:00:00 17.5 3 Norte 8 Norte 0 -- -- 88
2017-12-02 05:00:00 17.8 3 Norte 8 Norte 0 -- -- 87
2017-12-02 04:00:00 18.1 3 Norte 7 Norte 0 -- -- 88
2017-12-02 03:00:00 17.9 4 Norte 7 Norte 0 -- -- 87
2017-12-02 02:00:00 18.1 5 Norte 9 Norte 0 -- -- 87
2017-12-02 01:00:00 18.4 4 Norte 9 Norte 0 -- -- 86
2017-12-02 00:00:00 18.8 4 Norte 8 Norte 0 -- -- 85
2017-12-01 23:00:00 19.3 5 Norte 9 Noroeste 0 -- -- 83
2017-12-01 22:00:00 20.1 4 Norte 8 Norte 0 -- -- 81
2017-12-01 21:00:00 20.4 4 Norte 6 Norte 0 -- -- 81
2017-12-01 20:00:00 20.9 2 Norte 8 Nordeste 0 -- -- 80
2017-12-01 19:00:00 21.9 3 Sur 7 Sudeste 0 -- -- 81
2017-12-01 18:00:00 22 3 Sur 8 Sur 0 -- -- 81
2017-12-01 17:00:00 22.2 5 Sur 10 Sur 0 -- -- 81
2017-12-01 16:00:00 22.5 3 Sudeste 12 Sur 0 -- -- 80
2017-12-01 15:00:00 23.2 6 Sur 14 Sur 0 -- -- 75
2017-12-01 14:00:00 24.6 8 Sur 16 Sur 0 -- -- 71
2017-12-01 13:00:00 23.9 8 Sur 16 Sur 0 -- -- 73
2017-12-01 12:00:00 23.9 8 Sur 15 Sur 0 -- -- 71
2017-12-01 11:00:00 23.9 8 Sur 17 Sur 0 -- -- 73
2017-12-01 10:00:00 22.9 6 Sudeste 13 Sudeste 0 -- -- 75
2017-12-01 09:00:00 19.9 3 Norte 7 Norte 0 -- -- 86
2017-12-01 08:00:00 18.3 4 Norte 7 Norte 0 -- -- 89
2017-12-01 07:00:00 18.8 3 Norte 6 Norte 0 -- -- 88
2017-12-01 06:00:00 19.4 3 Norte 6 Norte 0 -- -- 89
2017-12-01 05:00:00 20.5 0 Calma 6 Norte 0 -- -- 89
2017-12-01 04:00:00 21 2 Sudeste 10 Sur 0 -- -- 86
2017-12-01 03:00:00 21 2 Sudeste 8 Sur 0 -- -- 86
2017-12-01 02:00:00 21.1 0 Calma 4 Sur 0 -- -- 84
2017-12-01 01:00:00 21.4 3 Sur 5 Sur 0 -- -- 84
2017-12-01 00:00:00 21.4 2 Sudeste 7 Sudeste 0 -- -- 84
2017-11-30 23:00:00 21.5 4 Sur 9 Sudeste 0 -- -- 84
2017-11-30 22:00:00 21.6 3 Norte 6 Este 0 -- -- 79
2017-11-30 21:00:00 21.7 2 Norte 8 Noroeste 0 -- -- 78
2017-11-30 20:00:00 21.9 3 Norte 6 Norte 0 -- -- 77
2017-11-30 19:00:00 22.1 3 Nordeste 10 Nordeste 0 -- -- 74
2017-11-30 18:00:00 22.5 5 Nordeste 11 Nordeste 0 -- -- 72
2017-11-30 17:00:00 22.7 4 Norte 12 Norte 0 -- -- 73
2017-11-30 16:00:00 22.9 5 Norte 10 Norte 0 -- -- 74
2017-11-30 15:00:00 23.5 5 Sur 17 Sudeste 0 -- -- 74
2017-11-30 14:00:00 24.3 8 Sudeste 15 Sur 0 -- -- 68
2017-11-30 13:00:00 23.5 6 Sur 20 Sudeste 0 -- -- 74
2017-11-30 12:00:00 24.4 10 Sudeste 22 Sur 0 -- -- 71
2017-11-30 11:00:00 24.4 7 Sudeste 23 Sudeste 0 -- -- 70
2017-11-30 10:00:00 23.4 10 Sudeste 21 Sur 0 -- -- 73
2017-11-30 09:00:00 20.5 2 Nordeste 6 Norte 0 -- -- 79
2017-11-30 08:00:00 18.4 4 Norte 9 Norte 0 -- -- 85
2017-11-30 07:00:00 18.6 4 Norte 8 Norte 0 -- -- 85
2017-11-30 06:00:00 18.7 2 Norte 6 Norte 0 -- -- 83
2017-11-30 05:00:00 19.9 0 Calma 8 Noroeste 0 -- -- 82
2017-11-30 04:00:00 21.3 3 Noroeste 13 Noroeste 0 -- -- 71
2017-11-30 03:00:00 19.6 5 Norte 10 Norte 0 -- -- 78
2017-11-30 02:00:00 19 4 Norte 9 Norte 0 -- -- 81
2017-11-30 01:00:00 19.6 4 Norte 9 Norte 0 -- -- 82
2017-11-30 00:00:00 19.7 3 Norte 9 Norte 0 -- -- 83
2017-11-29 23:00:00 19.9 4 Norte 8 Norte 0 -- -- 83
2017-11-29 22:00:00 20.3 3 Norte 8 Norte 0 -- -- 86
2017-11-29 21:00:00 21 3 Norte 6 Norte 0 -- -- 86
2017-11-29 20:00:00 21.7 0 Calma 7 Sudoeste 0 -- -- 86
2017-11-29 19:00:00 21.8 4 Sur 8 Sur 0 -- -- 86
2017-11-29 18:00:00 22.3 3 Sur 8 Sur 0 -- -- 83
2017-11-29 17:00:00 22.8 2 Sur 9 Sur 0 -- -- 81
2017-11-29 16:00:00 23.2 5 Sur 11 Este 0 -- -- 78
2017-11-29 15:00:00 22.9 6 Sudeste 14 Sur 0 -- -- 80
2017-11-29 14:00:00 24.3 6 Sur 14 Sudeste 0 -- -- 74
2017-11-29 13:00:00 23.7 8 Sur 14 Sudeste 0 -- -- 78
2017-11-29 12:00:00 24.2 4 Sur 13 Sudeste 0 -- -- 74
2017-11-29 11:00:00 24.1 5 Sudeste 10 Sur 0 -- -- 73
2017-11-29 10:00:00 22.4 0 Calma 6 Norte 0 -- -- 73
2017-11-29 09:00:00 20.3 4 Norte 8 Norte 0 -- -- 77
2017-11-29 08:00:00 19.1 4 Noroeste 8 Norte 0 -- -- 81
2017-11-29 07:00:00 18.8 3 Norte 9 Noroeste 0 -- -- 81
2017-11-29 06:00:00 18.4 5 Norte 9 Norte 0 -- -- 80
2017-11-29 05:00:00 18.2 5 Norte 8 Norte 0 -- -- 80
2017-11-29 04:00:00 18.3 4 Norte 10 Norte 0 -- -- 79
2017-11-29 03:00:00 18.6 4 Norte 8 Norte 0 -- -- 78
2017-11-29 02:00:00 19.1 4 Norte 8 Norte 0 -- -- 78
2017-11-29 01:00:00 19.5 4 Norte 7 Norte 0 -- -- 77
2017-11-29 00:00:00 19.4 5 Norte 7 Norte 0 -- -- 79
2017-11-28 23:00:00 19.4 3 Norte 7 Norte 0 -- -- 78
2017-11-28 22:00:00 20 4 Norte 7 Norte 0 -- -- 77
2017-11-28 21:00:00 20.5 4 Norte 8 Norte 0 -- -- 77
2017-11-28 20:00:00 21 3 Norte 8 Sudoeste 0 -- -- 77
2017-11-28 19:00:00 21.8 4 Sudoeste 9 Sudoeste 0 -- -- 82
2017-11-28 18:00:00 22.6 4 Sudoeste 10 Sudoeste 0 -- -- 74
2017-11-28 17:00:00 23.5 5 Sudeste 12 Sudeste 0 -- -- 58
2017-11-28 16:00:00 24.4 5 Sudeste 17 Sur 0 -- -- 47
2017-11-28 15:00:00 25 6 Sudeste 17 Sur 0 -- -- 50
2017-11-28 14:00:00 24.4 6 Sudeste 18 Sudeste 0 -- -- 61
2017-11-28 13:00:00 24.5 8 Sudeste 18 Sur 0 -- -- 65
2017-11-28 12:00:00 24.1 9 Sudeste 19 Sur 0 -- -- 65
2017-11-28 11:00:00 24.6 7 Sudeste 14 Sur 0 -- -- 56
2017-11-28 10:00:00 22.8 2 Nordeste 9 Norte 0 -- -- 58
2017-11-28 09:00:00 19.4 4 Norte 9 Norte 0 -- -- 66
2017-11-28 08:00:00 18.3 5 Norte 10 Norte 0 -- -- 67
2017-11-28 07:00:00 18.4 5 Norte 10 Norte 0 -- -- 69
2017-11-28 06:00:00 18.2 6 Norte 10 Norte 0 -- -- 67
2017-11-28 05:00:00 18.1 5 Norte 9 Norte 0 -- -- 63
2017-11-28 04:00:00 18.4 5 Norte 9 Norte 0 -- -- 59
2017-11-28 03:00:00 18.5 6 Norte 9 Norte 0 -- -- 56
2017-11-28 02:00:00 19.4 4 Norte 10 Noroeste 0 -- -- 55
2017-11-28 01:00:00 18.8 5 Norte 10 Norte 0 -- -- 52
2017-11-28 00:00:00 19 6 Norte 10 Norte 0 -- -- 55
2017-11-27 23:00:00 19 5 Norte 12 Norte 0 -- -- 50
2017-11-27 22:00:00 19.8 2 Norte 10 Noroeste 0 -- -- 61
2017-11-27 21:00:00 20 6 Norte 10 Nordeste 0 -- -- 67
2017-11-27 20:00:00 20.7 4 Norte 8 Norte 0 -- -- 66
2017-11-27 19:00:00 22.1 4 Norte 9 Sudoeste 0 -- -- 64
2017-11-27 18:00:00 23.5 5 Nordeste 16 Nordeste 0 -- -- 61
2017-11-27 17:00:00 24.2 5 Norte 22 Nordeste 0 -- -- 55
2017-11-27 16:00:00 25.4 7 Sudeste 18 Nordeste 0 -- -- 51
2017-11-27 15:00:00 26.2 8 Norte 20 Nordeste 0 -- -- 49
2017-11-27 14:00:00 26.8 4 Nordeste 17 Nordeste 0 -- -- 45
2017-11-27 13:00:00 26.7 6 Nordeste 20 Norte 0 -- -- 41
2017-11-27 12:00:00 25.8 4 Norte 28 Norte 0 -- -- 40
2017-11-27 11:00:00 26.6 6 Este 20 Nordeste 0 -- -- 37
2017-11-27 10:00:00 26 4 Este 10 Este 0 -- -- 40
2017-11-27 09:00:00 22.2 5 Norte 9 Norte 0 -- -- 52
2017-11-27 08:00:00 19.6 2 Norte 11 Norte 0 -- -- 58
2017-11-27 07:00:00 20.2 6 Norte 12 Norte 0 -- -- 59
2017-11-27 06:00:00 20.2 6 Norte 12 Norte 0 -- -- 65
2017-11-27 05:00:00 19.5 3 Norte 10 Norte 0 -- -- 69
2017-11-27 04:00:00 20.2 4 Norte 12 Noroeste 0 -- -- 67
2017-11-27 03:00:00 20.3 2 Norte 14 Norte 0 -- -- 66
2017-11-27 02:00:00 20.4 4 Norte 9 Norte 0 -- -- 70
2017-11-27 01:00:00 20 4 Norte 8 Norte 0 -- -- 78
2017-11-27 00:00:00 20.2 4 Norte 11 Norte 0 -- -- 80
2017-11-26 23:00:00 20.7 3 Norte 8 Norte 0 -- -- 81
2017-11-26 22:00:00 20.9 3 Norte 10 Norte 0 -- -- 79
2017-11-26 21:00:00 21.9 0 Calma 19 Norte 0 -- -- 81
2017-11-26 20:00:00 22.8 5 Norte 18 Norte 0 -- -- 73
2017-11-26 19:00:00 22.6 4 Noroeste 18 Norte 0 -- -- 77
2017-11-26 18:00:00 23.1 4 Nordeste 18 Nordeste 0 -- -- 73
2017-11-26 17:00:00 23.5 8 Norte 21 Norte 0 -- -- 69
2017-11-26 16:00:00 23.7 5 Norte 17 Norte 0 -- -- 68
2017-11-26 15:00:00 24.1 6 Este 17 Nordeste 0 -- -- 65
2017-11-26 14:00:00 24.7 7 Norte 25 Norte 0 -- -- 60
2017-11-26 13:00:00 24.7 7 Norte 25 Norte 0 -- -- 66
2017-11-26 12:00:00 24.3 12 Nordeste 28 Nordeste 0 -- -- 67
2017-11-26 11:00:00 25.2 10 Norte 24 Nordeste 0 -- -- 59
2017-11-26 10:00:00 23.8 7 Norte 22 Norte 0 -- -- 56
2017-11-26 09:00:00 23.8 13 Norte 30 Norte 0 -- -- 51
2017-11-26 08:00:00 23.4 7 Sudeste 20 Este 0 -- -- 47
2017-11-26 07:00:00 22.8 3 Norte 15 Norte 0 -- -- 49
2017-11-26 06:00:00 22.4 4 Este 14 Sudeste 0 -- -- 56
2017-11-26 05:00:00 22.5 6 Norte 18 Norte 0 -- -- 59
2017-11-26 04:00:00 22.9 7 Nordeste 19 Norte 0 -- -- 56
2017-11-26 03:00:00 21.8 3 Norte 10 Nordeste 0 -- -- 56
2017-11-26 02:00:00 21.1 2 Noroeste 11 Norte 0 -- -- 64
2017-11-26 01:00:00 21.3 4 Norte 11 Nordeste 0 -- -- 71
2017-11-26 00:00:00 22 3 Noroeste 23 Norte 0 -- -- 73
2017-11-25 23:00:00 22.4 13 Norte 29 Norte 0 -- -- 73
2017-11-25 22:00:00 22.2 5 Norte 19 Norte 0 -- -- 81
2017-11-25 21:00:00 22.1 4 Oeste 12 Oeste 0 -- -- 80
2017-11-25 20:00:00 22.3 3 Norte 24 Este 0 -- -- 78
2017-11-25 19:00:00 22.6 15 Sudeste 42 Sudeste 0 -- -- 75
2017-11-25 18:00:00 23 8 Nordeste 21 Nordeste 0 -- -- 71
2017-11-25 17:00:00 23.5 7 Nordeste 28 Sudeste 0 -- -- 65
2017-11-25 16:00:00 23.7 6 Sudeste 23 Sudeste 0 -- -- 66
2017-11-25 15:00:00 23.9 7 Este 20 Nordeste 0 -- -- 66
2017-11-25 14:00:00 24.3 4 Nordeste 18 Nordeste 0 -- -- 63
2017-11-25 13:00:00 24.3 5 Nordeste 16 Este 0 -- -- 61
2017-11-25 12:00:00 24.7 4 Este 16 Norte 0 -- -- 56
2017-11-25 11:00:00 24.6 8 Nordeste 21 Norte 0 -- -- 52
2017-11-25 10:00:00 25.2 7 Este 28 Nordeste 0 -- -- 44
2017-11-25 09:00:00 25.4 9 Nordeste 29 Nordeste 0 -- -- 37
2017-11-25 08:00:00 24 5 Sudeste 16 Sudeste 0 -- -- 39
2017-11-25 07:00:00 21.6 5 Noroeste 15 Nordeste 0 -- -- 61
2017-11-25 06:00:00 22.1 3 Sudeste 17 Sudeste 0 -- -- 78
2017-11-25 05:00:00 21.7 4 Norte 12 Nordeste 0 -- -- 68
2017-11-25 04:00:00 21 2 Norte 8 Este 0 -- -- 79
2017-11-25 03:00:00 20.9 2 Noroeste 8 Norte 0 -- -- 82
2017-11-25 02:00:00 20.8 3 Norte 12 Noroeste 0 -- -- 83
2017-11-25 01:00:00 21.3 2 Norte 8 Nordeste 0 -- -- 85
2017-11-25 00:00:00 21 0 Calma 11 Oeste 0 -- -- 83
2017-11-24 23:00:00 21.5 3 Norte 14 Nordeste 0 -- -- 84
2017-11-24 22:00:00 21.5 6 Nordeste 14 Nordeste 0 -- -- 84
2017-11-24 21:00:00 21.7 4 Nordeste 20 Noroeste 0 -- -- 80
2017-11-24 20:00:00 21.9 3 Norte 18 Nordeste 0 -- -- 77
2017-11-24 19:00:00 22.1 4 Este 21 Nordeste 0 -- -- 69
2017-11-24 18:00:00 22.8 7 Nordeste 17 Nordeste 0 -- -- 61
2017-11-24 17:00:00 23.8 7 Nordeste 22 Este 0 -- -- 47
2017-11-24 16:00:00 24.4 6 Nordeste 18 Nordeste 0 -- -- 48
2017-11-24 15:00:00 24 7 Nordeste 19 Nordeste 0 -- -- 63
2017-11-24 14:00:00 23.4 8 Nordeste 22 Este 0 -- -- 68
2017-11-24 13:00:00 22.7 8 Nordeste 20 Sudeste 0 -- -- 70
2017-11-24 12:00:00 23.2 12 Sudeste 28 Sudeste 0 -- -- 77
2017-11-24 11:00:00 22.5 8 Sudeste 22 Sudeste 0 -- -- 77
2017-11-24 10:00:00 22 8 Sur 22 Sur 0 -- -- 79
2017-11-24 09:00:00 21.6 6 Sur 15 Sudeste 0 -- -- 79
2017-11-24 08:00:00 21.2 6 Sur 17 Sudeste 0 -- -- 82
2017-11-24 07:00:00 19.8 3 Norte 6 Norte 0 -- -- 75
2017-11-24 06:00:00 18.6 5 Norte 9 Norte 0 -- -- 71
2017-11-24 05:00:00 18.5 4 Norte 7 Norte 0 -- -- 70
2017-11-24 04:00:00 18.7 4 Norte 7 Norte 0 -- -- 70
2017-11-24 03:00:00 19 0 Calma 8 Norte 0 -- -- 76
2017-11-24 02:00:00 18.7 4 Norte 6 Norte 0 -- -- 82
2017-11-24 01:00:00 19 3 Norte 7 Norte 0 -- -- 80
2017-11-24 00:00:00 19.6 5 Norte 8 Norte 0 -- -- 78
2017-11-23 23:00:00 19 5 Norte 8 Norte 0 -- -- 74
2017-11-23 22:00:00 19.4 4 Norte 8 Norte 0 -- -- 68
2017-11-23 21:00:00 19.8 5 Norte 9 Norte 0 -- -- 65
2017-11-23 20:00:00 20.4 5 Norte 9 Norte 0 -- -- 64
2017-11-23 19:00:00 21.5 2 Este 13 Noroeste 0 -- -- 66
2017-11-23 18:00:00 21.9 4 Nordeste 12 Sur 0 -- -- 64
2017-11-23 17:00:00 22.5 4 Sudeste 17 Sur 0 -- -- 58
2017-11-23 16:00:00 24 7 Sudeste 13 Sudeste 0 -- -- 48
2017-11-23 15:00:00 23.7 7 Sur 14 Sur 0 -- -- 59
2017-11-23 14:00:00 23.6 6 Sur 14 Sudeste 0 -- -- 64
2017-11-23 13:00:00 23.8 7 Sur 14 Sudeste 0 -- -- 66
2017-11-23 12:00:00 23.6 8 Sur 15 Sudeste 0 -- -- 66
2017-11-23 11:00:00 23 9 Sur 14 Sur 0 -- -- 68
2017-11-23 10:00:00 23 5 Sur 8 Sudeste 0 -- -- 57
2017-11-23 09:00:00 19.1 5 Norte 9 Norte 0 -- -- 57
2017-11-23 08:00:00 16.4 6 Norte 10 Norte 0 -- -- 59
2017-11-23 07:00:00 16.8 5 Norte 10 Norte 0 -- -- 58
2017-11-23 06:00:00 16.8 5 Norte 9 Norte 0 -- -- 56
2017-11-23 05:00:00 16.9 6 Norte 9 Noroeste 0 -- -- 56
2017-11-23 04:00:00 16.9 5 Norte 10 Norte 0 -- -- 60
2017-11-23 03:00:00 16.7 5 Norte 11 Norte 0 -- -- 62
2017-11-23 02:00:00 17.2 5 Norte 10 Nordeste 0 -- -- 68
2017-11-23 01:00:00 18 5 Norte 9 Norte 0 -- -- 69
2017-11-23 00:00:00 18.4 5 Norte 7 Norte 0 -- -- 75
2017-11-22 23:00:00 18.6 4 Norte 7 Norte 0 -- -- 77
2017-11-22 22:00:00 18.8 4 Norte 7 Noroeste 0 -- -- 76
2017-11-22 21:00:00 19.4 4 Norte 8 Norte 0 -- -- 74
2017-11-22 20:00:00 19.9 3 Norte 6 Norte 0 -- -- 72
2017-11-22 19:00:00 21.3 2 Norte 5 Sur 0 -- -- 70
2017-11-22 18:00:00 22.4 4 Sur 10 Sudeste 0 -- -- 67
2017-11-22 17:00:00 23.1 5 Sur 12 Sur 0 -- -- 63
2017-11-22 16:00:00 24.6 6 Sur 15 Sur 0 -- -- 57
2017-11-22 15:00:00 24.5 8 Sudeste 19 Sudeste 0 -- -- 57
2017-11-22 14:00:00 25.1 8 Sudeste 20 Sudeste 0 -- -- 58
2017-11-22 13:00:00 24.7 10 Sudeste 22 Sur 0 -- -- 59
2017-11-22 12:00:00 24.9 10 Sudeste 19 Sudeste 0 -- -- 55
2017-11-22 11:00:00 24.7 7 Este 20 Nordeste 0 -- -- 49
2017-11-22 10:00:00 24.5 6 Nordeste 18 Nordeste 0 -- -- 43
2017-11-22 09:00:00 23 5 Este 12 Sudoeste 0 -- -- 43
2017-11-22 08:00:00 20 5 Norte 10 Norte 0 -- -- 41
2017-11-22 07:00:00 20.4 3 Noroeste 15 Nordeste 0 -- -- 34
2017-11-22 06:00:00 20.5 4 Noroeste 10 Norte 0 -- -- 31
2017-11-22 05:00:00 20.7 4 Norte 11 Norte 0 -- -- 27
2017-11-22 04:00:00 20.3 7 Norte 12 Norte 0 -- -- 27
2017-11-22 03:00:00 20.5 6 Norte 12 Norte 0 -- -- 28
2017-11-22 02:00:00 21.2 6 Norte 16 Nordeste 0 -- -- 31
2017-11-22 01:00:00 23.4 4 Nordeste 17 Nordeste 0 -- -- 31
2017-11-22 00:00:00 23.4 5 Nordeste 14 Nordeste 0 -- -- 30
2017-11-21 23:00:00 23.7 3 Nordeste 17 Nordeste 0 -- -- 22
2017-11-21 22:00:00 23.5 4 Norte 15 Norte 0 -- -- 26
2017-11-21 21:00:00 22.9 4 Oeste 17 Nordeste 0 -- -- 39
2017-11-21 20:00:00 23.4 7 Nordeste 24 Nordeste 0 -- -- 38
2017-11-21 19:00:00 23.4 9 Norte 17 Norte 0 -- -- 36
2017-11-21 18:00:00 23.2 5 Nordeste 16 Nordeste 0 -- -- 43
2017-11-21 17:00:00 23.4 5 Norte 26 Nordeste 0 -- -- 49
2017-11-21 16:00:00 23.8 6 Nordeste 29 Norte 0 -- -- 49
2017-11-21 15:00:00 24 9 Nordeste 23 Norte 0 -- -- 51
2017-11-21 14:00:00 24.7 11 Nordeste 32 Este 0 -- -- 46
2017-11-21 13:00:00 24.4 14 Nordeste 33 Nordeste 0 -- -- 41
2017-11-21 12:00:00 24.3 12 Nordeste 31 Norte 0 -- -- 38
2017-11-21 11:00:00 24.2 17 Este 40 Sudeste 0 -- -- 37
2017-11-21 10:00:00 24 9 Sudeste 24 Sudeste 0 -- -- 46
2017-11-21 09:00:00 23.1 6 Nordeste 15 Este 0 -- -- 41
2017-11-21 08:00:00 18.8 4 Norte 14 Norte 0 -- -- 55
2017-11-21 07:00:00 18 6 Norte 11 Norte 0 -- -- 55
2017-11-21 06:00:00 18 4 Norte 10 Norte 0 -- -- 54
2017-11-21 05:00:00 17.9 6 Norte 10 Norte 0 -- -- 52
2017-11-21 04:00:00 17.9 6 Norte 9 Noroeste 0 -- -- 58
2017-11-21 03:00:00 17.7 5 Norte 10 Norte 0 -- -- 79
2017-11-21 02:00:00 17.7 5 Norte 9 Norte 0 -- -- 77
2017-11-21 01:00:00 17.8 5 Norte 10 Norte 0 -- -- 69
2017-11-21 00:00:00 17.8 7 Norte 10 Norte 0 -- -- 58
2017-11-20 23:00:00 18.1 6 Norte 10 Norte 0 -- -- 49
2017-11-20 22:00:00 19 6 Norte 11 Norte 0 -- -- 46
2017-11-20 21:00:00 19.1 5 Norte 9 Norte 0 -- -- 46
2017-11-20 20:00:00 20.2 3 Norte 10 Norte 0 -- -- 46
2017-11-20 19:00:00 21.1 4 Norte 8 Norte 0 -- -- 54
2017-11-20 18:00:00 22.6 2 Sudoeste 9 Este 0 -- -- 60
2017-11-20 17:00:00 23.1 3 Sudoeste 12 Sur 0 -- -- 65
2017-11-20 16:00:00 24.7 6 Sur 16 Sur 0 -- -- 67
2017-11-20 15:00:00 24.2 8 Sudeste 22 Sur 0 -- -- 70
2017-11-20 14:00:00 24.5 6 Sudeste 18 Sudeste 0 -- -- 65
2017-11-20 13:00:00 24.2 7 Sur 17 Sudeste 0 -- -- 64
2017-11-20 12:00:00 23.8 7 Sur 17 Sur 0 -- -- 66
2017-11-20 11:00:00 23.4 10 Sur 19 Sur 0 -- -- 68
2017-11-20 10:00:00 22.7 6 Sur 14 Sudeste 0 -- -- 72
2017-11-20 09:00:00 20.1 4 Sur 13 Sur 0 -- -- 80
2017-11-20 08:00:00 18.6 5 Norte 13 Sur 0 -- -- 79
2017-11-20 07:00:00 19.8 3 Sudoeste 10 Sudoeste 0 -- -- 79
2017-11-20 06:00:00 20.4 3 Sudoeste 13 Sur 0 -- -- 75
2017-11-20 05:00:00 20.4 3 Oeste 12 Sur 0 -- -- 75
2017-11-20 04:00:00 20.4 3 Sur 19 Sur 0 -- -- 75
2017-11-20 03:00:00 20.5 6 Sur 20 Sur 0 -- -- 73
2017-11-20 02:00:00 20.6 7 Sur 17 Sudeste 0 -- -- 75
2017-11-20 01:00:00 20.5 5 Sur 15 Sur 0 -- -- 73
2017-11-20 00:00:00 20.6 7 Sudoeste 29 Sur 0 -- -- 72
2017-11-19 23:00:00 20.7 7 Noroeste 22 Sur 0 -- -- 70
2017-11-19 22:00:00 20.7 10 Sur 30 Sur 0 -- -- 68
2017-11-19 21:00:00 20.8 5 Sur 26 Sur 0 -- -- 68
2017-11-19 20:00:00 20.9 7 Sur 29 Sur 0 -- -- 66
2017-11-19 19:00:00 21.3 2 Nordeste 19 Sur 0 -- -- 65
2017-11-19 18:00:00 21.5 8 Sur 24 Sudeste 0 -- -- 66
2017-11-19 17:00:00 22.1 3 Norte 21 Noroeste 0 -- -- 61
2017-11-19 16:00:00 22.9 7 Sudeste 31 Sudeste 0 -- -- 61
2017-11-19 15:00:00 23.2 11 Sudeste 27 Sudeste 0 -- -- 61
2017-11-19 14:00:00 23.1 12 Sudeste 25 Este 0 -- -- 61
2017-11-19 13:00:00 22.9 12 Sudeste 23 Sudeste 0 -- -- 63
2017-11-19 12:00:00 23.1 9 Sudeste 23 Sudeste 0 -- -- 63
2017-11-19 11:00:00 22.8 9 Sudeste 21 Sudeste 0 -- -- 63
2017-11-19 10:00:00 22.3 10 Sur 24 Sur 0 -- -- 65
2017-11-19 09:00:00 21 10 Sudeste 22 Sudeste 0 -- -- 70
2017-11-19 08:00:00 20.8 3 Oeste 17 Sudoeste 0 -- -- 68
2017-11-19 07:00:00 20.7 4 Sur 17 Oeste 0 -- -- 71
2017-11-19 06:00:00 20.5 6 Sur 14 Sur 0 -- -- 73
2017-11-19 05:00:00 20.6 4 Sudoeste 23 Sur 0 -- -- 69
2017-11-19 04:00:00 20.7 4 Sudoeste 14 Sudeste 0 -- -- 71
2017-11-19 03:00:00 20.7 4 Sur 21 Sudeste 0 -- -- 71
2017-11-19 02:00:00 20.7 6 Sur 18 Sudoeste 0 -- -- 68
2017-11-19 01:00:00 20.5 3 Oeste 16 Sur 0 -- -- 72
2017-11-19 00:00:00 20.6 6 Sur 17 Sudeste 0 -- -- 73
2017-11-18 23:00:00 20.6 4 Oeste 19 Sur 0 -- -- 72
2017-11-18 22:00:00 19.6 2 Norte 10 Sudoeste 0 -- -- 73
2017-11-18 21:00:00 19.6 3 Norte 6 Norte 0 -- -- 73
2017-11-18 20:00:00 20.4 3 Norte 6 Norte 0 -- -- 71
2017-11-18 19:00:00 21 2 Norte 13 Nordeste 0 -- -- 67
2017-11-18 18:00:00 21.6 6 Nordeste 17 Norte 0 -- -- 66
2017-11-18 17:00:00 22.4 6 Norte 18 Sudeste 0 -- -- 63
2017-11-18 16:00:00 23 10 Sudeste 23 Sudeste 0 -- -- 65
2017-11-18 15:00:00 23.5 9 Sur 20 Sudeste 0 -- -- 63
2017-11-18 14:00:00 24 6 Sudeste 13 Sur 0 -- -- 60
2017-11-18 13:00:00 23.7 6 Sudeste 14 Sur 0 -- -- 61
2017-11-18 12:00:00 23.2 7 Sur 16 Sudeste 0 -- -- 62
2017-11-18 11:00:00 22.4 4 Sur 13 Sur 0 -- -- 65
2017-11-18 10:00:00 21.5 4 Sudeste 9 Sudeste 0 -- -- 67
2017-11-18 09:00:00 20.2 0 Calma 6 Norte 0 -- -- 74
2017-11-18 08:00:00 19 3 Norte 6 Norte 0 -- -- 78
2017-11-18 07:00:00 19.1 3 Norte 5 Norte 0 -- -- 77
2017-11-18 06:00:00 19.5 3 Norte 5 Noroeste 0 -- -- 75
2017-11-18 05:00:00 19.4 2 Norte 8 Norte 0 -- -- 74
2017-11-18 04:00:00 19 4 Norte 9 Norte 0 -- -- 74
2017-11-18 03:00:00 19.2 3 Norte 6 Nordeste 0 -- -- 75
2017-11-18 02:00:00 20.5 0 Calma 11 Este 0 -- -- 73
2017-11-18 01:00:00 20.7 4 Sur 11 Sudeste 0 -- -- 73
2017-11-18 00:00:00 20.7 3 Sur 9 Sur 0 -- -- 73
2017-11-17 23:00:00 20.7 4 Sur 9 Sudeste 0 -- -- 71
2017-11-17 22:00:00 20.8 3 Sudeste 14 Sur 0 -- -- 71
2017-11-17 21:00:00 20.7 5 Sur 18 Sur 0 -- -- 73
2017-11-17 20:00:00 20.9 4 Sur 13 Sur 0 -- -- 74
2017-11-17 19:00:00 21 8 Sur 20 Sur 0 -- -- 72
2017-11-17 18:00:00 21.1 9 Sudeste 21 Sudeste 0 -- -- 71
2017-11-17 17:00:00 21.4 10 Sudeste 24 Sudeste 0 -- -- 70
2017-11-17 16:00:00 21.8 12 Sudeste 23 Sudeste 0 -- -- 67
2017-11-17 15:00:00 22.6 10 Sudeste 23 Sudeste 0 -- -- 66
2017-11-17 14:00:00 23.2 10 Sudeste 23 Sur 0 -- -- 64
2017-11-17 13:00:00 23.4 9 Sudeste 19 Sudeste 0 -- -- 62
2017-11-17 12:00:00 23.1 9 Sur 14 Sudeste 0 -- -- 62
2017-11-17 11:00:00 22.9 6 Sur 12 Sudeste 0 -- -- 64
2017-11-17 10:00:00 20.9 0 Calma 5 Norte 0 -- -- 72
2017-11-17 09:00:00 19.6 3 Norte 11 Norte 0 -- -- 75
2017-11-17 08:00:00 17.2 4 Norte 9 Norte 0 -- -- 78
2017-11-17 07:00:00 17 5 Norte 9 Norte 0 -- -- 78
2017-11-17 06:00:00 16.9 4 Norte 8 Norte 0 -- -- 77
2017-11-17 05:00:00 16.8 5 Norte 9 Norte 0 -- -- 79
2017-11-17 04:00:00 17.2 4 Norte 9 Noroeste 0 -- -- 78
2017-11-17 03:00:00 17.4 4 Norte 9 Nordeste 0 -- -- 78
2017-11-17 02:00:00 17.5 4 Norte 8 Norte 0 -- -- 77
2017-11-17 01:00:00 17.8 4 Norte 12 Nordeste 0 -- -- 75
2017-11-17 00:00:00 17.5 4 Norte 8 Norte 0 -- -- 75
2017-11-16 23:00:00 18.1 5 Noroeste 8 Norte 0 -- -- 74
2017-11-16 22:00:00 18.5 4 Norte 6 Norte 0 -- -- 74
2017-11-16 21:00:00 19.7 3 Norte 12 Sur 0 -- -- 70
2017-11-16 20:00:00 20.2 5 Sur 18 Sudeste 0 -- -- 70
2017-11-16 19:00:00 20.4 9 Sudeste 18 Sudeste 0 -- -- 69
2017-11-16 18:00:00 20.6 7 Sudeste 20 Sur 0 -- -- 69
2017-11-16 17:00:00 20.9 6 Sur 25 Sur 0 -- -- 67
2017-11-16 16:00:00 22.1 10 Sudeste 24 Sudeste 0 -- -- 64
2017-11-16 15:00:00 22.3 8 Sudeste 21 Sudeste 0 -- -- 61
2017-11-16 14:00:00 23.2 8 Sur 19 Sudeste 0 -- -- 58
2017-11-16 13:00:00 23.1 8 Sur 19 Sur 0 -- -- 60
2017-11-16 12:00:00 22.4 9 Sudeste 20 Sur 0 -- -- 61
2017-11-16 11:00:00 22.5 8 Sur 15 Sur 0 -- -- 61
2017-11-16 10:00:00 21.8 6 Sur 15 Sur 0 -- -- 63
2017-11-16 09:00:00 19.1 3 Norte 8 Norte 0 -- -- 71
2017-11-16 08:00:00 16.4 4 Norte 9 Norte 0 -- -- 78
2017-11-16 07:00:00 16.3 5 Norte 8 Norte 0 -- -- 77
2017-11-16 06:00:00 16.3 5 Norte 8 Norte 0 -- -- 77
2017-11-16 05:00:00 16.4 4 Norte 8 Norte 0 -- -- 78
2017-11-16 04:00:00 17 3 Norte 8 Norte 0 -- -- 77
2017-11-16 03:00:00 17.4 4 Norte 9 Nordeste 0 -- -- 76
2017-11-16 02:00:00 17.2 4 Norte 9 Norte 0 -- -- 75
2017-11-16 01:00:00 17.5 4 Norte 8 Norte 0 -- -- 74
2017-11-16 00:00:00 18.1 4 Norte 7 Norte 0 -- -- 73
2017-11-15 23:00:00 18.7 4 Noroeste 8 Nordeste 0 -- -- 71
2017-11-15 22:00:00 19.1 4 Norte 8 Norte 0 -- -- 70
2017-11-15 21:00:00 19.3 3 Norte 7 Norte 0 -- -- 70
2017-11-15 20:00:00 20.1 4 Norte 12 Norte 0 -- -- 67
2017-11-15 19:00:00 20.5 4 Norte 16 Norte 0 -- -- 65
2017-11-15 18:00:00 21.1 7 Norte 21 Nordeste 0 -- -- 64
2017-11-15 17:00:00 21.8 9 Norte 26 Norte 0 -- -- 63
2017-11-15 16:00:00 22.9 10 Norte 26 Norte 0 -- -- 58
2017-11-15 15:00:00 23.6 10 Norte 28 Norte 0 -- -- 54
2017-11-15 14:00:00 23.4 13 Sudeste 31 Sudeste 0 -- -- 55
2017-11-15 13:00:00 22.9 11 Norte 26 Norte 0 -- -- 55
2017-11-15 12:00:00 22.9 10 Norte 24 Noroeste 0 -- -- 57
2017-11-15 11:00:00 22.4 11 Norte 22 Norte 0 -- -- 59
2017-11-15 10:00:00 21.7 7 Norte 15 Norte 0 -- -- 63
2017-11-15 09:00:00 20.7 4 Norte 10 Norte 0 -- -- 66
2017-11-15 08:00:00 18.4 0 Calma 5 Noroeste 0 -- -- 74
2017-11-15 07:00:00 18.7 0 Calma 9 Oeste 0 -- -- 72
2017-11-15 06:00:00 18.7 0 Calma 9 Norte 0 -- -- 73
2017-11-15 05:00:00 18.6 4 Norte 9 Norte 0 -- -- 76
2017-11-15 04:00:00 17.3 0 Calma 5 Norte 0 -- -- 78
2017-11-15 03:00:00 17.6 3 Norte 7 Norte 0 -- -- 76
2017-11-15 02:00:00 17.9 3 Norte 6 Norte 0 -- -- 73
2017-11-15 01:00:00 18.7 3 Norte 6 Norte 0 -- -- 71
2017-11-15 00:00:00 19.8 0 Calma 16 Nordeste 0 -- -- 67